createdAt,value
2019-05-06T00:01:01.251Z,5.10
2019-05-06T00:03:34.206Z,5.73
2019-05-06T00:06:07.900Z,6.00
2019-05-06T00:08:43.979Z,6.07
2019-05-06T00:11:15.247Z,5.37
2019-05-06T00:13:46.803Z,5.90
2019-05-06T00:16:17.714Z,5.60
2019-05-06T00:18:54.131Z,5.83
2019-05-06T00:21:24.991Z,5.20
2019-05-06T00:24:03.999Z,5.00
2019-05-06T00:26:39.795Z,5.47
2019-05-06T00:29:14.648Z,5.37
2019-05-06T00:31:53.623Z,6.10
2019-05-06T00:34:25.354Z,6.47
2019-05-06T00:36:58.641Z,5.70
2019-05-06T00:39:39.200Z,6.13
2019-05-06T00:42:13.935Z,5.40
2019-05-06T00:44:46.487Z,5.33
2019-05-06T00:47:18.302Z,6.60
2019-05-06T00:49:58.999Z,6.07
2019-05-06T00:52:36.902Z,7.23
2019-05-06T00:55:11.186Z,6.83
2019-05-06T00:57:46.732Z,7.97
2019-05-06T01:00:24.529Z,7.03
2019-05-06T01:02:55.887Z,6.40
2019-05-06T01:05:26.940Z,6.80
2019-05-06T01:07:57.567Z,6.53
2019-05-06T01:10:31.415Z,6.00
2019-05-06T01:13:07.661Z,5.63
2019-05-06T01:15:38.267Z,6.17
2019-05-06T01:18:09.793Z,6.07
2019-05-06T01:20:46.708Z,5.97
2019-05-06T01:23:23.460Z,5.90
2019-05-06T01:25:49.355Z,5.93
2019-05-06T01:28:24.394Z,6.20
2019-05-06T01:30:58.291Z,5.83
2019-05-06T01:33:28.688Z,6.50
2019-05-06T01:35:59.155Z,5.87
2019-05-06T01:38:33.989Z,6.50
2019-05-06T01:41:06.958Z,5.83
2019-05-06T01:43:43.918Z,5.70
2019-05-06T01:51:51.765Z,5.77
2019-05-06T01:54:22.171Z,5.63
2019-05-06T01:56:59.867Z,5.53
2019-05-06T01:59:34.562Z,5.73
2019-05-06T02:02:06.811Z,6.50
2019-05-06T02:04:44.411Z,6.13
2019-05-06T02:07:28.025Z,6.30
2019-05-06T02:10:03.864Z,5.93
2019-05-06T02:12:36.516Z,6.10
2019-05-06T02:15:15.467Z,5.40
2019-05-06T02:17:49.185Z,5.77
2019-05-06T02:20:24.567Z,5.80
2019-05-06T02:23:05.484Z,6.53
2019-05-06T02:25:40.204Z,6.20
2019-05-06T02:28:14.663Z,6.13
2019-05-06T02:33:45.185Z,5.63
2019-05-06T02:36:25.747Z,5.67
2019-05-06T02:38:59.272Z,5.53
2019-05-06T02:41:33.870Z,6.53
2019-05-06T02:44:10.991Z,5.83
2019-05-06T02:46:46.079Z,6.20
2019-05-06T02:52:18.374Z,6.27
2019-05-06T03:42:18.819Z,5.37
2019-05-06T03:44:53.238Z,5.90
2019-05-06T03:47:38.068Z,5.97
2019-05-06T03:50:08.659Z,6.20
2019-05-06T03:52:42.877Z,6.63
2019-05-06T03:55:15.141Z,6.37
2019-05-06T03:57:47.641Z,6.27
2019-05-06T04:00:17.716Z,6.57
2019-05-06T04:02:53.559Z,6.23
2019-05-06T04:08:14.981Z,6.97
2019-05-06T04:10:47.234Z,6.60
2019-05-06T04:13:19.978Z,6.47
2019-05-06T04:16:16.011Z,6.17
2019-05-06T04:18:58.916Z,6.20
2019-05-06T04:21:43.716Z,6.23
2019-05-06T04:24:16.874Z,5.77
2019-05-06T04:27:04.656Z,6.17
2019-05-06T04:29:39.153Z,6.20
2019-05-06T04:34:54.612Z,5.50
2019-05-06T04:42:59.974Z,5.27
2019-05-06T04:45:33.903Z,4.33
2019-05-06T04:48:04.050Z,4.37
2019-05-06T04:50:37.172Z,4.53
2019-05-06T05:17:42.462Z,4.00
2019-05-06T05:20:12.691Z,3.43
2019-05-06T05:22:42.445Z,3.20
2019-05-06T05:25:12.215Z,3.60
2019-05-06T05:27:42.236Z,3.70
2019-05-06T05:32:52.095Z,3.13
2019-05-06T05:38:16.683Z,2.70
2019-05-06T05:43:48.188Z,3.13
2019-05-06T05:58:02.930Z,2.40
2019-05-06T06:17:51.962Z,2.20
2019-05-06T06:21:19.196Z,2.03
2019-05-06T06:26:43.729Z,2.10
2019-05-06T06:29:13.503Z,1.70
2019-05-06T06:32:03.129Z,1.90
2019-05-06T06:35:10.127Z,1.73
2019-05-06T06:37:45.498Z,1.80
2019-05-06T06:40:23.310Z,1.50
2019-05-06T06:51:25.724Z,1.83
2019-05-06T06:57:08.381Z,1.80
2019-05-06T07:02:27.594Z,1.73
2019-05-06T07:05:22.477Z,1.50
2019-05-06T07:07:47.342Z,1.70
2019-05-06T07:10:32.847Z,1.70
2019-05-06T07:22:12.777Z,1.20
2019-05-06T07:24:45.206Z,1.27
2019-05-06T07:27:22.807Z,1.60
2019-05-06T07:38:18.243Z,1.40
2019-05-06T07:40:54.499Z,1.23
2019-05-06T07:43:33.905Z,1.57
2019-05-06T07:48:40.057Z,1.53
2019-05-06T07:53:48.246Z,1.50
2019-05-06T07:56:32.220Z,1.50
2019-05-06T08:01:54.857Z,1.40
2019-05-06T08:04:34.079Z,1.50
2019-05-06T08:07:15.231Z,1.23
2019-05-06T08:09:46.208Z,1.35
2019-05-06T08:18:03.401Z,1.20
2019-05-06T08:24:02.668Z,1.30
2019-05-06T08:26:13.041Z,1.27
2019-05-06T08:28:47.337Z,1.50
2019-05-06T08:31:22.334Z,1.23
2019-05-06T08:36:42.592Z,1.33
2019-05-06T08:39:18.167Z,1.33
2019-05-06T08:44:32.263Z,1.52
2019-05-06T08:47:02.540Z,1.60
2019-05-06T08:49:33.516Z,1.40
2019-05-06T08:52:04.224Z,1.30
2019-05-06T08:54:37.956Z,1.40
2019-05-06T08:57:07.092Z,1.40
2019-05-06T08:59:38.121Z,1.40
2019-05-06T09:02:07.447Z,1.50
2019-05-06T09:04:36.508Z,1.30
2019-05-06T09:07:07.511Z,1.20
2019-05-06T09:09:36.263Z,1.40
2019-05-06T09:12:05.385Z,1.47
2019-05-06T09:14:34.571Z,1.40
2019-05-06T09:17:04.112Z,1.77
2019-05-06T09:19:33.928Z,1.40
2019-05-06T09:30:28.804Z,1.50
2019-05-06T09:35:35.096Z,1.70
2019-05-06T09:43:32.697Z,1.45
2019-05-06T09:46:04.703Z,2.22
2019-05-06T09:54:38.840Z,1.30
2019-05-06T09:57:12.883Z,1.40
2019-05-06T09:59:47.306Z,1.40
2019-05-06T10:02:17.020Z,1.10
2019-05-06T10:04:46.095Z,1.52
2019-05-06T10:07:17.485Z,1.60
2019-05-06T10:09:46.954Z,1.47
2019-05-06T10:12:17.487Z,1.42
2019-05-06T10:14:49.938Z,1.47
2019-05-06T10:17:42.898Z,1.55
2019-05-06T10:20:23.294Z,1.65
2019-05-06T10:23:05.629Z,2.10
2019-05-06T10:51:32.310Z,1.20
2019-05-06T11:02:52.409Z,1.47
2019-05-06T11:05:21.241Z,1.55
2019-05-06T11:07:52.844Z,1.80
2019-05-06T11:10:28.546Z,1.52
2019-05-06T11:15:36.491Z,1.70
2019-05-06T11:18:05.893Z,1.87
2019-05-06T11:23:28.003Z,1.60
2019-05-06T11:29:08.848Z,1.90
2019-05-06T11:31:43.310Z,1.62
2019-05-06T11:34:18.683Z,1.52
2019-05-06T11:36:52.228Z,1.70
2019-05-06T11:39:23.280Z,1.40
2019-05-06T11:42:06.384Z,1.60
2019-05-06T11:44:28.866Z,1.60
2019-05-06T11:46:59.263Z,1.20
2019-05-06T11:52:25.258Z,1.50
2019-05-06T11:54:54.331Z,1.80
2019-05-06T11:57:23.465Z,1.60
2019-05-06T11:59:52.955Z,1.60
2019-05-06T12:02:23.766Z,1.40
2019-05-06T12:04:53.049Z,1.60
2019-05-06T12:07:24.572Z,1.60
2019-05-06T12:27:03.586Z,1.42
2019-05-06T14:17:35.132Z,1.07
2019-05-06T14:39:59.103Z,1.45
2019-05-06T14:53:48.056Z,1.45
2019-05-06T15:40:32.067Z,1.57
2019-05-06T15:42:54.313Z,1.45
2019-05-06T15:48:22.060Z,1.10
2019-05-06T15:50:53.286Z,1.40
2019-05-06T15:53:22.525Z,1.50
2019-05-06T15:55:53.517Z,1.07
2019-05-06T15:58:22.949Z,1.30
2019-05-06T16:00:53.158Z,1.20
2019-05-06T16:03:23.361Z,1.12
2019-05-06T16:05:55.127Z,1.40
2019-05-06T16:08:24.591Z,1.40
2019-05-06T16:11:05.797Z,1.35
2019-05-06T16:13:34.964Z,1.20
2019-05-06T16:16:06.944Z,1.20
2019-05-06T16:18:34.866Z,1.57
2019-05-06T16:21:04.089Z,1.30
2019-05-06T16:23:42.314Z,1.17
2019-05-06T16:32:12.139Z,1.37
2019-05-06T16:34:45.094Z,1.35
2019-05-06T16:40:12.351Z,1.50
2019-05-06T16:48:13.163Z,1.50
2019-05-06T16:50:43.083Z,1.73
2019-05-06T16:55:56.480Z,1.40
2019-05-06T16:58:27.889Z,1.77
2019-05-06T17:00:57.177Z,1.83
2019-05-06T17:03:33.925Z,1.80
2019-05-06T17:06:16.482Z,1.50
2019-05-06T17:08:45.682Z,1.70
2019-05-06T17:11:26.826Z,1.60
2019-05-06T17:21:48.655Z,1.63
2019-05-06T17:24:17.839Z,1.52
2019-05-06T17:26:46.941Z,1.47
2019-05-06T17:34:48.578Z,1.80
2019-05-06T17:37:36.941Z,1.70
2019-05-06T17:40:13.955Z,1.60
2019-05-06T17:42:42.562Z,1.57
2019-05-06T17:45:32.266Z,1.60
2019-05-06T17:48:08.852Z,1.47
2019-05-06T17:50:38.001Z,1.73
2019-05-06T17:53:07.077Z,1.90
2019-05-06T17:55:36.302Z,1.80
2019-05-06T17:58:05.506Z,1.77
2019-05-06T18:00:34.685Z,1.80
2019-05-06T18:03:03.846Z,1.57
2019-05-06T18:05:33.011Z,1.90
2019-05-06T18:08:02.900Z,2.07
2019-05-06T18:10:34.046Z,1.90
2019-05-06T18:13:03.281Z,1.80
2019-05-06T18:15:33.564Z,1.70
2019-05-06T18:18:03.018Z,1.93
2019-05-06T18:20:33.537Z,2.07
2019-05-06T18:23:02.819Z,2.03
2019-05-06T18:25:32.886Z,1.90
2019-05-06T18:30:44.595Z,1.93
2019-05-06T18:33:13.754Z,1.90
2019-05-06T18:35:42.910Z,1.80
2019-05-06T18:38:12.453Z,2.03
2019-05-06T18:40:42.350Z,1.90
2019-05-06T18:43:12.744Z,2.10
2019-05-06T18:45:44.559Z,1.70
2019-05-06T18:48:13.708Z,1.90
2019-05-06T18:50:42.781Z,1.80
2019-05-06T18:53:13.361Z,2.00
2019-05-06T18:58:18.888Z,1.90
2019-05-06T19:00:48.030Z,1.90
2019-05-06T19:03:17.237Z,1.80
2019-05-06T19:05:46.382Z,1.73
2019-05-06T19:08:28.914Z,1.93
2019-05-06T19:10:58.150Z,1.83
2019-05-06T19:13:34.921Z,1.80
2019-05-06T19:16:04.183Z,2.17
2019-05-06T19:18:33.396Z,1.90
2019-05-06T19:21:02.722Z,1.70
2019-05-06T19:23:32.464Z,1.87
2019-05-06T19:26:02.936Z,1.90
2019-05-06T19:28:32.868Z,1.60
2019-05-06T19:31:03.121Z,1.70
2019-05-06T19:33:34.889Z,1.80
2019-05-06T19:36:03.271Z,1.90
2019-05-06T19:38:34.804Z,1.90
2019-05-06T19:41:05.853Z,1.80
2019-05-06T19:43:34.607Z,1.67
2019-05-06T19:46:03.847Z,1.70
2019-05-06T19:48:32.965Z,1.80
2019-05-06T19:51:03.086Z,1.70
2019-05-06T19:53:32.431Z,1.90
2019-05-06T19:58:34.994Z,1.60
2019-05-06T20:01:04.923Z,1.70
2019-05-06T20:03:34.125Z,1.77
2019-05-06T20:06:13.547Z,1.80
2019-05-06T20:08:44.834Z,1.77
2019-05-06T20:11:15.532Z,1.90
2019-05-06T20:13:52.445Z,1.90
2019-05-06T20:16:22.890Z,1.90
2019-05-06T20:18:52.588Z,1.80
2019-05-06T20:21:23.536Z,1.77
2019-05-06T20:23:52.756Z,1.67
2019-05-06T20:26:22.109Z,2.00
2019-05-06T20:28:52.804Z,1.77
2019-05-06T20:31:22.611Z,2.17
2019-05-06T20:33:53.409Z,2.20
2019-05-06T20:36:23.246Z,2.10
2019-05-06T20:38:52.298Z,1.43
2019-05-06T20:41:32.951Z,1.83
2019-05-06T20:44:02.756Z,1.53
2019-05-06T20:46:32.384Z,2.23
2019-05-06T20:49:02.467Z,2.00
2019-05-06T20:51:32.844Z,1.90
2019-05-06T20:54:01.967Z,1.90
2019-05-06T20:56:32.712Z,1.90
2019-05-06T20:59:02.846Z,2.00
2019-05-06T21:01:32.640Z,1.70
2019-05-06T21:04:02.314Z,1.93
2019-05-06T21:06:32.246Z,1.80
2019-05-06T21:09:02.107Z,1.90
2019-05-06T21:11:32.560Z,1.93
2019-05-06T21:14:03.132Z,1.70
2019-05-06T21:16:43.949Z,1.60
2019-05-06T21:56:19.533Z,1.60
2019-05-06T21:58:48.929Z,1.50
2019-05-06T22:01:18.329Z,1.67
2019-05-06T22:03:47.574Z,1.53
2019-05-06T22:06:16.882Z,1.60
2019-05-06T22:11:24.295Z,1.40
2019-05-06T22:14:00.756Z,1.30
2019-05-06T22:16:23.783Z,1.50
2019-05-06T22:18:53.551Z,1.73
2019-05-06T22:21:25.835Z,1.63
2019-05-06T22:23:56.632Z,1.50
2019-05-06T22:26:43.674Z,1.67
2019-05-06T22:29:13.634Z,1.40
2019-05-06T22:31:42.699Z,1.40
2019-05-06T22:34:13.447Z,1.53
2019-05-06T22:36:42.541Z,1.50
2019-05-06T22:41:48.100Z,1.50
2019-05-06T22:44:17.286Z,1.50
2019-05-06T22:46:46.376Z,1.80
2019-05-06T22:49:15.511Z,1.30
2019-05-06T22:51:46.193Z,1.50
2019-05-06T22:54:15.341Z,1.30
2019-05-06T22:56:45.392Z,1.40
2019-05-06T22:59:15.446Z,1.70
2019-05-06T23:01:46.127Z,1.50
2019-05-06T23:04:16.962Z,1.40
2019-05-06T23:06:46.010Z,1.50
2019-05-06T23:09:15.058Z,1.60
2019-05-06T23:11:44.203Z,1.87
2019-05-06T23:22:42.767Z,1.33
2019-05-06T23:25:12.515Z,1.70
2019-05-06T23:27:43.957Z,1.40
2019-05-06T23:30:13.068Z,1.50
2019-05-06T23:32:42.392Z,1.70
2019-05-06T23:35:15.054Z,1.40
2019-05-06T23:38:20.279Z,1.60
2019-05-06T23:41:25.222Z,1.30
2019-05-06T23:47:07.274Z,1.70
2019-05-06T23:50:13.887Z,1.80
2019-05-06T23:53:19.387Z,1.80
2019-05-06T23:56:25.594Z,1.70
2019-05-06T23:58:54.671Z,2.23
